Time;durP1;ratioP1;P1;durP2;ratioP2;P2;SDS_P1;SDS_P2;PMS_P1;PMS_P2;Temp;Humidity;BMP_temperature;BMP_pressure;BME280_temperature;BME280_humidity;BME280_pressure;Samples;Min_cycle;Max_cycle;Signal;HPM_P1;HPM_P2
2021/01/30 00:00:42;;;;;;;;;;;;;;;-1.27;100.00;99352.75;5012512;28;19974;-71
2021/01/30 00:03:08;;;;;;;;;;;;;;;-1.30;100.00;99347.56;5021334;28;20012;-72
2021/01/30 00:05:34;;;;;;;;;;;;;;;-1.30;100.00;99352.69;5019785;28;19920;-71
2021/01/30 00:07:59;;;;;;;;;;;;;;;-1.29;100.00;99359.53;5021043;28;20423;-71
2021/01/30 00:10:25;;;;;;;;;;;;;;;-1.31;100.00;99353.50;5015531;28;19997;-72
2021/01/30 00:12:51;;;;;;;;;;;;;;;-1.31;100.00;99368.88;5015093;28;19918;-71
2021/01/30 00:15:19;;;;;;;;;;;;;;;-1.31;100.00;99376.59;5021902;28;19920;-72
2021/01/30 00:17:44;;;;;;;;;;;;;;;-1.30;100.00;99387.72;5022178;28;19971;-73
2021/01/30 00:20:12;;;;;;;;;;;;;;;-1.29;100.00;99382.63;5027660;28;20384;-72
2021/01/30 00:22:37;;;;;;;;;;;;;;;-1.29;100.00;99398.00;5021983;28;20370;-73
2021/01/30 00:25:03;;;;;;;;;;;;;;;-1.30;100.00;99403.97;5020863;28;19921;-73
2021/01/30 00:27:28;;;;;;;;;;;;;;;-1.32;100.00;99399.63;5028474;28;19913;-72
2021/01/30 00:29:54;;;;;;;;;;;;;;;-1.29;100.00;99405.69;5022206;28;20392;-71
2021/01/30 00:32:20;;;;;;;;;;;;;;;-1.29;100.00;99417.66;5019134;28;19917;-70
2021/01/30 00:34:46;;;;;;;;;;;;;;;-1.30;100.00;99427.03;5018519;28;19914;-73
2021/01/30 00:37:16;;;;;;;;;;;;;;;-1.30;100.00;99433.84;5020711;28;20442;-71
2021/01/30 00:39:42;;;;;;;;;;;;;;;-1.30;100.00;99429.59;5022655;28;19923;-71
2021/01/30 00:42:08;;;;;;;;;;;;;;;-1.31;100.00;99430.44;5018779;28;20008;-70
2021/01/30 00:44:33;;;;;;;;;;;;;;;-1.33;100.00;99439.78;5023340;28;19913;-71
2021/01/30 00:46:59;;;;;;;;;;;;;;;-1.33;100.00;99444.00;5019683;28;19932;-71
2021/01/30 00:49:24;;;;;;;;;;;;;;;-1.31;100.00;99453.50;5019713;28;20288;-72
2021/01/30 00:51:50;;;;;;;;;;;;;;;-1.32;100.00;99462.03;5018291;28;19971;-74
2021/01/30 00:54:15;;;;;;;;;;;;;;;-1.32;100.00;99459.47;5024894;28;20385;-71
2021/01/30 00:56:41;;;;;;;;;;;;;;;-1.30;100.00;99464.63;5021083;28;19916;-73
2021/01/30 00:59:06;;;;;;;;;;;;;;;-1.30;100.00;99469.75;5023325;28;19920;-72
2021/01/30 01:01:39;;;;;;;;;;;;;;;-1.30;100.00;99474.88;5026166;28;19938;-71
2021/01/30 01:04:04;;;;;;;;;;;;;;;-1.30;100.00;99478.31;5027025;28;20014;-71
2021/01/30 01:06:30;;;;;;;;;;;;;;;-1.31;100.00;99484.25;5028179;28;20408;-72
2021/01/30 01:08:55;;;;;;;;;;;;;;;-1.28;100.00;99484.34;5015218;28;19952;-71
2021/01/30 01:11:21;;;;;;;;;;;;;;;-1.31;100.00;99489.41;5025131;28;19924;-71
2021/01/30 01:13:46;;;;;;;;;;;;;;;-1.30;100.00;99493.69;5019572;28;19913;-71
2021/01/30 01:16:11;;;;;;;;;;;;;;;-1.31;100.00;99491.09;5022417;28;19967;-72
2021/01/30 01:18:37;;;;;;;;;;;;;;;-1.31;100.00;99499.66;5026965;28;19917;-71
2021/01/30 01:21:02;;;;;;;;;;;;;;;-1.32;100.00;99505.59;5024782;28;20195;-71
2021/01/30 01:23:27;;;;;;;;;;;;;;;-1.32;100.00;99517.56;5022192;28;19917;-74
2021/01/30 01:25:52;;;;;;;;;;;;;;;-1.32;100.00;99520.97;5027934;28;19913;-72
2021/01/30 01:28:18;;;;;;;;;;;;;;;-1.33;100.00;99526.94;5027932;28;19924;-71
2021/01/30 01:30:43;;;;;;;;;;;;;;;-1.33;100.00;99521.81;5018540;28;19916;-71
2021/01/30 01:33:08;;;;;;;;;;;;;;;-1.32;100.00;99531.25;5027991;28;19960;-70
2021/01/30 01:35:33;;;;;;;;;;;;;;;-1.33;100.00;99523.47;5028406;28;19913;-72
2021/01/30 01:37:59;;;;;;;;;;;;;;;-1.33;100.00;99531.16;5023690;28;19921;-72
2021/01/30 01:40:30;;;;;;;;;;;;;;;-1.33;100.00;99532.06;5024707;28;20004;-72
2021/01/30 01:42:56;;;;;;;;;;;;;;;-1.37;100.00;99532.78;5020717;28;20389;-74
2021/01/30 01:45:21;;;;;;;;;;;;;;;-1.39;100.00;99531.88;5017084;28;19917;-74
2021/01/30 01:47:47;;;;;;;;;;;;;;;-1.42;100.00;99536.91;5024536;28;19912;-71
2021/01/30 01:50:35;;;;;;;;;;;;;;;-1.42;100.00;99547.16;5021773;28;19919;-72
2021/01/30 01:53:15;;;;;;;;;;;;;;;-1.44;100.00;99546.25;5018417;28;19917;-73
2021/01/30 01:55:45;;;;;;;;;;;;;;;-1.43;100.00;99555.69;5025085;28;19917;-71
2021/01/30 01:58:12;;;;;;;;;;;;;;;-1.44;100.00;99559.06;5028609;28;19944;-73
2021/01/30 02:00:37;;;;;;;;;;;;;;;-1.47;100.00;99562.38;5018950;28;19928;-71
2021/01/30 02:03:03;;;;;;;;;;;;;;;-1.49;100.00;99550.34;5026595;28;19921;-71
2021/01/30 02:05:38;;;;;;;;;;;;;;;-1.50;100.00;99556.31;5028946;28;19913;-73
2021/01/30 02:08:07;;;;;;;;;;;;;;;-1.53;100.00;99561.34;5016259;28;19917;-71
2021/01/30 02:10:37;;;;;;;;;;;;;;;-1.56;100.00;99563.81;5019256;28;20004;-73
2021/01/30 02:13:06;;;;;;;;;;;;;;;-1.55;100.00;99571.56;5023156;28;20000;-72
2021/01/30 02:15:31;;;;;;;;;;;;;;;-1.55;100.00;99578.38;5025753;28;19921;-70
2021/01/30 02:18:07;;;;;;;;;;;;;;;-1.53;100.00;99594.66;5025470;28;19963;-74
2021/01/30 02:20:51;;;;;;;;;;;;;;;-1.50;100.00;99589.63;5026646;28;19917;-73
2021/01/30 02:23:25;;;;;;;;;;;;;;;-1.43;100.00;99594.13;5019926;28;19931;-73
2021/01/30 02:26:03;;;;;;;;;;;;;;;-1.42;100.00;99600.13;5024716;28;19917;-72
2021/01/30 02:28:47;;;;;;;;;;;;;;;-1.37;100.00;99612.25;5016306;28;20671;-73
2021/01/30 02:31:28;;;;;;;;;;;;;;;-1.40;100.00;99612.16;5020106;28;19920;-69
2021/01/30 02:33:59;;;;;;;;;;;;;;;-1.40;100.00;99604.47;5022266;28;19913;-72
2021/01/30 02:36:25;;;;;;;;;;;;;;;-1.37;100.00;99599.44;5022523;28;19917;-72
2021/01/30 02:39:06;;;;;;;;;;;;;;;-1.39;100.00;99601.09;5025592;28;19923;-72
2021/01/30 02:41:34;;;;;;;;;;;;;;;-1.41;100.00;99595.03;5015865;28;19920;-70
2021/01/30 02:44:01;;;;;;;;;;;;;;;-1.47;100.00;99605.09;5015535;28;20440;-73
2021/01/30 02:46:30;;;;;;;;;;;;;;;-1.57;100.00;99600.53;5022873;28;19924;-73
2021/01/30 02:48:57;;;;;;;;;;;;;;;-1.65;100.00;99600.25;5028270;28;20300;-72
2021/01/30 02:51:25;;;;;;;;;;;;;;;-1.69;100.00;99602.69;5027075;28;20002;-73
2021/01/30 02:53:55;;;;;;;;;;;;;;;-1.68;100.00;99614.69;5019246;28;20012;-71
2021/01/30 02:56:22;;;;;;;;;;;;;;;-1.65;100.00;99609.66;5028289;28;20173;-71
2021/01/30 02:59:06;;;;;;;;;;;;;;;-1.57;100.00;99613.34;5015748;28;19961;-72
2021/01/30 03:01:35;;;;;;;;;;;;;;;-1.51;100.00;99623.75;5019907;28;20392;-73
2021/01/30 03:04:02;;;;;;;;;;;;;;;-1.50;100.00;99615.25;5025051;28;19923;-71
2021/01/30 03:06:36;;;;;;;;;;;;;;;-1.41;100.00;99620.69;5020312;28;20011;-73
2021/01/30 03:09:20;;;;;;;;;;;;;;;-1.40;100.00;99627.53;5012114;28;19923;-72
2021/01/30 03:11:51;;;;;;;;;;;;;;;-1.35;100.00;99638.81;5012666;28;20381;-72
2021/01/30 03:14:20;;;;;;;;;;;;;;;-1.31;100.00;99643.22;5014470;28;19921;-72
2021/01/30 03:16:46;;;;;;;;;;;;;;;-1.29;100.00;99646.69;5018113;28;19920;-72
2021/01/30 03:19:15;;;;;;;;;;;;;;;-1.30;100.00;99652.66;5013253;28;21620;-72
2021/01/30 03:21:42;;;;;;;;;;;;;;;-1.29;100.00;99648.41;5017524;28;19940;-71
2021/01/30 03:24:08;;;;;;;;;;;;;;;-1.28;100.00;99652.69;5023644;28;20281;-73
2021/01/30 03:26:37;;;;;;;;;;;;;;;-1.26;100.00;99651.91;5008398;28;19919;-70
2021/01/30 03:29:02;;;;;;;;;;;;;;;-1.27;100.00;99657.00;5015030;28;20407;-72
2021/01/30 03:31:28;;;;;;;;;;;;;;;-1.22;100.00;99648.63;5017790;28;19948;-73
2021/01/30 03:33:53;;;;;;;;;;;;;;;-1.20;100.00;99653.81;5013928;28;19913;-71
2021/01/30 03:36:18;;;;;;;;;;;;;;;-1.22;100.00;99664.00;5024183;28;20004;-72
2021/01/30 03:38:43;;;;;;;;;;;;;;;-1.20;100.00;99674.34;5022556;28;20384;-70
2021/01/30 03:41:09;;;;;;;;;;;;;;;-1.16;100.00;99677.84;5025941;28;20180;-71
2021/01/30 03:43:34;;;;;;;;;;;;;;;-1.22;100.00;99679.38;5016880;28;19917;-73
2021/01/30 03:45:59;;;;;;;;;;;;;;;-1.25;100.00;99679.31;5018050;28;19990;-72
2021/01/30 03:48:25;;;;;;;;;;;;;;;-1.28;100.00;99679.22;5016647;28;19913;-71
2021/01/30 03:50:50;;;;;;;;;;;;;;;-1.31;100.00;99674.00;5018750;28;20446;-73
2021/01/30 03:53:16;;;;;;;;;;;;;;;-1.41;100.00;99671.94;5015249;28;19913;-71
2021/01/30 03:55:42;;;;;;;;;;;;;;;-1.52;100.00;99671.59;5019601;28;19920;-72
2021/01/30 03:58:07;;;;;;;;;;;;;;;-1.62;100.00;99691.75;5025409;28;19913;-69
2021/01/30 04:00:32;;;;;;;;;;;;;;;-1.69;100.00;99700.94;5027281;28;19912;-71
2021/01/30 04:02:58;;;;;;;;;;;;;;;-1.83;100.00;99708.13;5028220;28;20272;-72
2021/01/30 04:05:24;;;;;;;;;;;;;;;-1.83;100.00;99703.00;5025654;28;19920;-72
2021/01/30 04:07:50;;;;;;;;;;;;;;;-1.77;100.00;99703.22;5022917;28;19914;-71
2021/01/30 04:10:20;;;;;;;;;;;;;;;-1.66;100.00;99710.41;5017320;28;19967;-74
2021/01/30 04:12:45;;;;;;;;;;;;;;;-1.60;100.00;99705.47;5027326;28;19919;-71
2021/01/30 04:15:12;;;;;;;;;;;;;;;-1.52;100.00;99706.59;5026683;28;20003;-71
2021/01/30 04:17:37;;;;;;;;;;;;;;;-1.47;100.00;99703.38;5025003;28;20007;-72
2021/01/30 04:20:03;;;;;;;;;;;;;;;-1.50;100.00;99702.41;5020983;28;20008;-73
2021/01/30 04:22:28;;;;;;;;;;;;;;;-1.59;100.00;99700.38;5020258;28;20403;-73
2021/01/30 04:24:54;;;;;;;;;;;;;;;-1.71;100.00;99701.66;5019930;28;20012;-71
2021/01/30 04:27:19;;;;;;;;;;;;;;;-1.78;100.00;99696.34;5018148;28;19921;-73
2021/01/30 04:29:44;;;;;;;;;;;;;;;-1.77;100.00;99700.66;5017108;28;19913;-70
2021/01/30 04:32:10;;;;;;;;;;;;;;;-1.78;100.00;99696.34;5017063;28;19924;-72
2021/01/30 04:34:35;;;;;;;;;;;;;;;-1.72;100.00;99705.06;5018096;28;20339;-73
2021/01/30 04:37:00;;;;;;;;;;;;;;;-1.66;100.00;99710.41;5017489;28;19975;-70
2021/01/30 04:39:25;;;;;;;;;;;;;;;-1.59;100.00;99712.34;5013130;28;19920;-72
2021/01/30 04:42:08;;;;;;;;;;;;;;;-1.52;100.00;99714.31;5021989;28;20019;-75
2021/01/30 04:44:37;;;;;;;;;;;;;;;-1.47;100.00;99712.75;5023220;28;19921;-74
2021/01/30 04:47:21;;;;;;;;;;;;;;;-1.44;100.00;99707.75;5020656;28;20505;-74
2021/01/30 04:49:52;;;;;;;;;;;;;;;-1.39;100.00;99723.25;5024628;28;19939;-70
2021/01/30 04:52:23;;;;;;;;;;;;;;;-1.40;100.00;99724.97;5025831;28;19913;-74
2021/01/30 04:54:58;;;;;;;;;;;;;;;-1.37;100.00;99727.63;5013022;28;19963;-72
2021/01/30 04:57:44;;;;;;;;;;;;;;;-1.36;100.00;99726.78;5023285;28;19921;-71
2021/01/30 05:00:12;;;;;;;;;;;;;;;-1.33;100.00;99726.91;5022896;28;19917;-72
2021/01/30 05:02:44;;;;;;;;;;;;;;;-1.33;100.00;99729.47;5017332;28;19917;-72
2021/01/30 05:05:11;;;;;;;;;;;;;;;-1.34;100.00;99734.53;5018270;28;19913;-71
2021/01/30 05:07:51;;;;;;;;;;;;;;;-1.35;100.00;99738.78;5024052;28;20008;-71
2021/01/30 05:10:22;;;;;;;;;;;;;;;-1.38;100.00;99746.38;5030892;28;19940;-71
2021/01/30 05:12:51;;;;;;;;;;;;;;;-1.43;100.00;99742.81;5028294;28;19963;-73
2021/01/30 05:15:36;;;;;;;;;;;;;;;-1.44;100.00;99738.50;5023000;28;19912;-72
2021/01/30 05:18:15;;;;;;;;;;;;;;;-1.43;100.00;99745.38;5024320;28;19917;-74
2021/01/30 05:20:49;;;;;;;;;;;;;;;-1.44;100.00;99747.88;5030568;28;19916;-74
2021/01/30 05:23:15;;;;;;;;;;;;;;;-1.45;100.00;99747.03;5018863;28;20396;-74
2021/01/30 05:25:41;;;;;;;;;;;;;;;-1.45;100.00;99749.59;5022166;28;19920;-74
2021/01/30 05:28:25;;;;;;;;;;;;;;;-1.44;100.00;99746.19;5019082;28;19917;-72
2021/01/30 05:30:50;;;;;;;;;;;;;;;-1.49;100.00;99751.16;5024001;28;19966;-73
2021/01/30 05:33:28;;;;;;;;;;;;;;;-1.47;100.00;99756.31;5028256;28;20527;-71
2021/01/30 05:35:56;;;;;;;;;;;;;;;-1.53;100.00;99753.56;5022718;28;19917;-71
2021/01/30 05:38:27;;;;;;;;;;;;;;;-1.57;100.00;99752.59;5027175;28;19921;-72
2021/01/30 05:40:59;;;;;;;;;;;;;;;-1.59;100.00;99753.34;5015841;28;19947;-72
2021/01/30 05:43:34;;;;;;;;;;;;;;;-1.60;100.00;99754.16;5023123;28;19924;-75
2021/01/30 05:46:00;;;;;;;;;;;;;;;-1.63;100.00;99760.06;5018733;28;19955;-72
2021/01/30 05:48:31;;;;;;;;;;;;;;;-1.64;100.00;99755.75;5017256;28;19960;-73
2021/01/30 05:51:04;;;;;;;;;;;;;;;-1.65;100.00;99760.84;5030323;28;19913;-75
2021/01/30 05:53:29;;;;;;;;;;;;;;;-1.67;100.00;99765.03;5021275;28;19975;-73
2021/01/30 05:55:55;;;;;;;;;;;;;;;-1.69;100.00;99771.81;5028784;28;20375;-71
2021/01/30 05:58:22;;;;;;;;;;;;;;;-1.74;100.00;99768.19;5023915;28;19917;-72
2021/01/30 06:00:47;;;;;;;;;;;;;;;-1.73;100.00;99769.94;5025362;28;20372;-72
2021/01/30 06:03:17;;;;;;;;;;;;;;;-1.77;100.00;99774.09;5024628;28;20023;-74
2021/01/30 06:05:44;;;;;;;;;;;;;;;-1.79;100.00;99780.84;5026106;28;19961;-72
2021/01/30 06:08:22;;;;;;;;;;;;;;;-1.79;100.00;99781.72;5029215;28;19916;-73
2021/01/30 06:10:50;;;;;;;;;;;;;;;-1.79;100.00;99788.53;5017222;28;20316;-71
2021/01/30 06:13:23;;;;;;;;;;;;;;;-1.80;100.00;99782.53;5024435;28;20449;-71
2021/01/30 06:15:52;;;;;;;;;;;;;;;-1.72;100.00;99787.03;5028489;28;19922;-72
2021/01/30 06:18:28;;;;;;;;;;;;;;;-1.70;100.00;99785.41;5015815;28;19917;-72
2021/01/30 06:21:08;;;;;;;;;;;;;;;-1.67;100.00;99790.66;5015900;28;19913;-74
2021/01/30 06:23:34;;;;;;;;;;;;;;;-1.66;100.00;99792.41;5017763;28;19925;-73
2021/01/30 06:26:04;;;;;;;;;;;;;;;-1.69;100.00;99802.56;5020343;28;20281;-73
2021/01/30 06:28:34;;;;;;;;;;;;;;;-1.71;100.00;99794.78;5016391;28;19917;-73
2021/01/30 06:31:10;;;;;;;;;;;;;;;-1.74;100.00;99804.06;5015000;28;19920;-75
2021/01/30 06:33:42;;;;;;;;;;;;;;;-1.82;100.00;99802.13;5016236;28;19913;-72
2021/01/30 06:36:19;;;;;;;;;;;;;;;-1.85;100.00;99807.09;5019600;28;20020;-72
2021/01/30 06:38:53;;;;;;;;;;;;;;;-1.86;100.00;99807.94;5017585;28;19920;-73
2021/01/30 06:41:29;;;;;;;;;;;;;;;-1.82;100.00;99812.38;5012921;28;19920;-74
2021/01/30 06:44:06;;;;;;;;;;;;;;;-1.78;100.00;99814.22;5024664;28;19964;-74
2021/01/30 06:46:32;;;;;;;;;;;;;;;-1.73;100.00;99816.06;5028290;28;19917;-72
2021/01/30 06:49:14;;;;;;;;;;;;;;;-1.67;100.00;99821.41;5018663;28;19921;-74
2021/01/30 06:51:39;;;;;;;;;;;;;;;-1.67;100.00;99816.28;5023446;28;19916;-74
2021/01/30 06:54:16;;;;;;;;;;;;;;;-1.67;100.00;99813.72;5026328;28;19987;-75
2021/01/30 06:56:42;;;;;;;;;;;;;;;-1.67;100.00;99811.16;5016933;28;19944;-74
2021/01/30 06:59:12;;;;;;;;;;;;;;;-1.67;100.00;99808.59;5014441;28;20004;-74
2021/01/30 07:01:43;;;;;;;;;;;;;;;-1.68;100.00;99804.28;5027809;28;19917;-74
2021/01/30 07:04:27;;;;;;;;;;;;;;;-1.69;100.00;99802.56;5025723;28;19913;-72
2021/01/30 07:06:58;;;;;;;;;;;;;;;-1.70;100.00;99801.66;5020477;28;20331;-70
2021/01/30 07:09:31;;;;;;;;;;;;;;;-1.72;100.00;99802.41;5028601;28;19968;-72
2021/01/30 07:12:09;;;;;;;;;;;;;;;-1.73;100.00;99805.81;5029181;28;19912;-72
2021/01/30 07:14:50;;;;;;;;;;;;;;;-1.71;100.00;99825.53;5023015;28;19913;-71
2021/01/30 07:17:34;;;;;;;;;;;;;;;-1.67;100.00;99816.28;5016388;28;19913;-69
2021/01/30 07:20:11;;;;;;;;;;;;;;;-1.67;100.00;99826.53;5013999;28;19919;-70
2021/01/30 07:22:50;;;;;;;;;;;;;;;-1.60;100.00;99825.91;5018973;28;19917;-70
2021/01/30 07:25:20;;;;;;;;;;;;;;;-1.57;100.00;99826.94;5015762;28;19956;-71
2021/01/30 07:27:48;;;;;;;;;;;;;;;-1.56;100.00;99825.22;5016077;28;20584;-74
2021/01/30 07:30:13;;;;;;;;;;;;;;;-1.54;100.00;99826.16;5024892;28;20308;-73
2021/01/30 07:32:41;;;;;;;;;;;;;;;-1.54;100.00;99838.97;5021276;28;19920;-73
2021/01/30 07:35:13;;;;;;;;;;;;;;;-1.52;100.00;99832.19;5017377;28;19919;-72
2021/01/30 07:37:45;;;;;;;;;;;;;;;-1.50;100.00;99848.50;5024838;28;19921;-73
2021/01/30 07:40:16;;;;;;;;;;;;;;;-1.49;100.00;99846.00;5014451;28;19999;-74
2021/01/30 07:42:49;;;;;;;;;;;;;;;-1.51;100.00;99839.06;5027750;28;19921;-72
2021/01/30 07:45:22;;;;;;;;;;;;;;;-1.50;100.00;99835.69;5028133;28;19913;-73
2021/01/30 07:47:52;;;;;;;;;;;;;;;-1.48;100.00;99844.31;5016945;28;19921;-71
2021/01/30 07:50:28;;;;;;;;;;;;;;;-1.47;100.00;99846.91;5012326;28;19921;-72
2021/01/30 07:53:06;;;;;;;;;;;;;;;-1.45;100.00;99849.56;5026751;28;19917;-73
2021/01/30 07:55:32;;;;;;;;;;;;;;;-1.39;100.00;99844.63;5023028;28;20391;-69
2021/01/30 07:58:10;;;;;;;;;;;;;;;-1.34;100.00;99842.22;5023649;28;20003;-70
2021/01/30 08:00:49;;;;;;;;;;;;;;;-1.29;100.00;99840.69;5020348;28;19921;-71
2021/01/30 08:03:14;;;;;;;;;;;;;;;-1.28;100.00;99838.19;5010862;28;20403;-71
2021/01/30 08:05:39;;;;;;;;;;;;;;;-1.23;100.00;99846.91;5017374;28;19909;-70
2021/01/30 08:08:07;;;;;;;;;;;;;;;-1.21;100.00;99847.84;5018445;28;19914;-73
2021/01/30 08:10:33;;;;;;;;;;;;;;;-1.19;100.00;99843.63;5018813;28;19921;-76
2021/01/30 08:13:05;;;;;;;;;;;;;;;-1.21;100.00;99842.72;5027403;28;19917;-72
2021/01/30 08:15:30;;;;;;;;;;;;;;;-1.15;100.00;99844.59;5016957;28;20011;-72
2021/01/30 08:18:13;;;;;;;;;;;;;;;-1.16;100.00;99835.16;5020186;28;19992;-73
2021/01/30 08:21:00;;;;;;;;;;;;;;;-1.14;100.00;99841.22;5025949;28;20297;-74
2021/01/30 08:23:44;;;;;;;;;;;;;;;-1.12;100.00;99838.69;5025744;28;19946;-73
2021/01/30 08:26:14;;;;;;;;;;;;;;;-1.15;100.00;99838.59;5022277;28;19962;-74
2021/01/30 08:28:45;;;;;;;;;;;;;;;-1.14;100.00;99845.47;5027461;28;19917;-72
2021/01/30 08:31:30;;;;;;;;;;;;;;;-1.14;100.00;99840.34;5023691;28;19920;-72
2021/01/30 08:34:14;;;;;;;;;;;;;;;-1.12;100.00;99836.13;5012048;28;19992;-73
2021/01/30 08:36:40;;;;;;;;;;;;;;;-1.09;100.00;99843.94;5024100;28;19913;-74
2021/01/30 08:39:16;;;;;;;;;;;;;;;-1.12;100.00;99834.44;5018757;28;19916;-73
2021/01/30 08:41:44;;;;;;;;;;;;;;;-1.09;100.00;99838.81;5025527;28;19952;-74
2021/01/30 08:44:18;;;;;;;;;;;;;;;-1.05;100.00;99830.41;5014158;28;19909;-72
2021/01/30 08:46:44;;;;;;;;;;;;;;;-1.02;100.00;99840.75;5018277;28;19979;-72
2021/01/30 08:49:10;;;;;;;;;;;;;;;-0.99;100.00;99841.72;5019965;28;19921;-75
2021/01/30 08:51:35;;;;;;;;;;;;;;;-0.89;100.00;99842.91;5032254;28;19920;-72
2021/01/30 08:54:19;;;;;;;;;;;;;;;-0.77;100.00;99845.00;5024291;28;19953;-72
2021/01/30 08:56:51;;;;;;;;;;;;;;;-0.72;100.00;99841.78;5027819;28;20015;-71
2021/01/30 08:59:35;;;;;;;;;;;;;;;-0.75;100.00;99846.81;5028635;28;20396;-73
2021/01/30 09:02:00;;;;;;;;;;;;;;;-0.69;100.00;99846.16;5029954;28;19924;-74
2021/01/30 09:04:44;;;;;;;;;;;;;;;-0.76;100.00;99844.19;5020896;28;19913;-74
2021/01/30 09:07:29;;;;;;;;;;;;;;;-0.78;100.00;99843.28;5013496;28;19913;-71
2021/01/30 09:10:15;;;;;;;;;;;;;;;-0.84;100.00;99841.38;5020667;28;19940;-72
2021/01/30 09:12:54;;;;;;;;;;;;;;;-0.86;100.00;99837.88;5027364;28;20320;-72
2021/01/30 09:15:38;;;;;;;;;;;;;;;-0.86;100.00;99832.75;5026343;28;19913;-73
2021/01/30 09:18:21;;;;;;;;;;;;;;;-0.91;100.00;99835.16;5026064;28;20296;-72
2021/01/30 09:20:57;;;;;;;;;;;;;;;-0.85;100.00;99844.75;5017643;28;19991;-71
2021/01/30 09:23:41;;;;;;;;;;;;;;;-0.70;100.00;99845.28;5019755;28;19960;-72
2021/01/30 09:26:12;;;;;;;;;;;;;;;-0.66;100.00;99847.09;5021354;28;19917;-72
2021/01/30 09:28:38;;;;;;;;;;;;;;;-0.80;100.00;99840.66;5026946;28;19913;-72
2021/01/30 09:31:05;;;;;;;;;;;;;;;-0.81;100.00;99846.63;5018781;28;19920;-73
2021/01/30 09:33:38;;;;;;;;;;;;;;;-0.77;100.00;99839.88;5022604;28;19971;-72
2021/01/30 09:36:15;;;;;;;;;;;;;;;-0.64;100.00;99850.59;5020100;28;20003;-73
2021/01/30 09:38:48;;;;;;;;;;;;;;;-0.58;100.00;99856.75;5026596;28;19928;-73
2021/01/30 09:41:20;;;;;;;;;;;;;;;-0.48;100.00;99851.09;5023615;28;19921;-73
2021/01/30 09:43:45;;;;;;;;;;;;;;;-0.54;100.00;99861.16;5024549;28;19917;-73
2021/01/30 09:46:13;;;;;;;;;;;;;;;-0.54;100.00;99866.28;5030197;28;19924;-73
2021/01/30 09:48:39;;;;;;;;;;;;;;;-0.50;100.00;99870.69;5028525;28;19920;-73
2021/01/30 09:51:06;;;;;;;;;;;;;;;-0.47;100.00;99873.38;5028359;28;19920;-72
2021/01/30 09:53:35;;;;;;;;;;;;;;;-0.55;100.00;99869.69;5022191;28;19917;-72
2021/01/30 09:56:13;;;;;;;;;;;;;;;-0.70;100.00;99860.69;5022104;28;19976;-73
2021/01/30 09:58:41;;;;;;;;;;;;;;;-0.83;100.00;99867.91;5031717;28;19913;-73
2021/01/30 10:01:20;;;;;;;;;;;;;;;-0.93;100.00;99866.75;5027074;28;19919;-72
2021/01/30 10:03:45;;;;;;;;;;;;;;;-0.84;100.00;99871.31;5024450;28;19998;-73
2021/01/30 10:06:15;;;;;;;;;;;;;;;-0.65;100.00;99874.53;5021844;28;19917;-72
2021/01/30 10:08:42;;;;;;;;;;;;;;;-0.50;100.00;99866.44;5019852;28;19921;-74
2021/01/30 10:11:09;;;;;;;;;;;;;;;-0.48;100.00;99871.66;5020041;28;19917;-73
2021/01/30 10:13:36;;;;;;;;;;;;;;;-0.47;100.00;99874.25;5030523;28;19921;-74
2021/01/30 10:16:03;;;;;;;;;;;;;;;-0.37;100.00;99875.41;5027162;28;19917;-75
2021/01/30 10:18:31;;;;;;;;;;;;;;;-0.25;100.00;99865.50;5025501;28;19921;-73
2021/01/30 10:21:00;;;;;;;;;;;;;;;-0.16;100.00;99873.50;5015054;28;19963;-72
2021/01/30 10:23:26;;;;;;;;;;;;;;;-0.03;100.00;99878.19;5035577;28;20007;-74
2021/01/30 10:26:01;;;;;;;;;;;;;;;-0.05;100.00;99868.69;5036179;28;19921;-71
2021/01/30 10:28:38;;;;;;;;;;;;;;;-0.08;100.00;99874.63;5019680;28;20344;-72
2021/01/30 10:31:04;;;;;;;;;;;;;;;0.01;100.00;99873.16;5030955;28;19921;-73
2021/01/30 10:33:30;;;;;;;;;;;;;;;0.14;100.00;99875.28;5023893;28;19951;-72
2021/01/30 10:35:55;;;;;;;;;;;;;;;0.31;100.00;99874.06;5026887;28;19948;-72
2021/01/30 10:38:21;;;;;;;;;;;;;;;0.24;100.00;99866.97;5024499;28;20322;-72
2021/01/30 10:40:54;;;;;;;;;;;;;;;0.25;100.00;99864.47;5026521;28;20403;-72
2021/01/30 10:43:22;;;;;;;;;;;;;;;0.22;100.00;99868.63;5024777;28;19921;-72
2021/01/30 10:45:54;;;;;;;;;;;;;;;0.13;100.00;99860.69;5024154;28;19924;-72
2021/01/30 10:48:22;;;;;;;;;;;;;;;0.21;100.00;99861.75;5015192;28;19920;-73
2021/01/30 10:50:48;;;;;;;;;;;;;;;0.16;100.00;99863.34;5016280;28;19924;-72
2021/01/30 10:53:22;;;;;;;;;;;;;;;0.09;100.00;99856.25;5024290;28;19916;-73
2021/01/30 10:55:49;;;;;;;;;;;;;;;0.07;100.00;99863.06;5023142;28;19917;-73
2021/01/30 10:58:26;;;;;;;;;;;;;;;0.05;100.00;99857.00;5024922;28;19921;-73
2021/01/30 11:01:00;;;;;;;;;;;;;;;0.12;100.00;99853.78;5015545;28;19944;-72
2021/01/30 11:03:40;;;;;;;;;;;;;;;0.12;100.00;99866.63;5017600;28;20252;-73
2021/01/30 11:06:23;;;;;;;;;;;;;;;-0.04;100.00;99858.47;5023116;28;19956;-72
2021/01/30 11:08:48;;;;;;;;;;;;;;;0.03;100.00;99861.22;5025020;28;19917;-72
2021/01/30 11:11:21;;;;;;;;;;;;;;;0.10;100.00;99852.84;5022307;28;19923;-70
2021/01/30 11:13:47;;;;;;;;;;;;;;;0.11;100.00;99857.16;5017385;28;19920;-72
2021/01/30 11:16:14;;;;;;;;;;;;;;;-0.01;100.00;99861.13;5022879;28;19924;-73
2021/01/30 11:18:41;;;;;;;;;;;;;;;0.01;100.00;99857.75;5016435;28;20469;-72
2021/01/30 11:21:08;;;;;;;;;;;;;;;0.04;100.00;99857.84;5026542;28;20392;-73
2021/01/30 11:23:42;;;;;;;;;;;;;;;-0.09;100.00;99844.63;5025934;28;19944;-72
2021/01/30 11:26:37;;;;;;;;;;;;;;;-0.14;100.00;99853.88;5022005;28;19923;-73
2021/01/30 11:29:04;;;;;;;;;;;;;;;-0.18;100.00;99846.91;5027631;28;19956;-71
2021/01/30 11:31:30;;;;;;;;;;;;;;;-0.26;100.00;99853.50;5023387;28;19921;-73
2021/01/30 11:33:56;;;;;;;;;;;;;;;-0.27;100.00;99851.75;5023582;28;19921;-72
2021/01/30 11:36:21;;;;;;;;;;;;;;;-0.31;100.00;99849.91;5025433;28;19928;-73
2021/01/30 11:38:54;;;;;;;;;;;;;;;-0.48;100.00;99840.84;5018996;28;19924;-73
2021/01/30 11:41:20;;;;;;;;;;;;;;;-0.39;100.00;99846.22;5020560;28;20000;-72
2021/01/30 11:43:45;;;;;;;;;;;;;;;-0.37;100.00;99849.72;5024634;28;20019;-72
2021/01/30 11:46:10;;;;;;;;;;;;;;;-0.47;100.00;99857.97;5025261;28;20295;-72
2021/01/30 11:48:35;;;;;;;;;;;;;;;-0.64;100.00;99848.03;5020862;28;19991;-73
2021/01/30 11:51:01;;;;;;;;;;;;;;;-0.69;100.00;99853.84;5018507;28;20525;-73
2021/01/30 11:53:29;;;;;;;;;;;;;;;-0.67;100.00;99852.19;5018337;28;19917;-73
2021/01/30 11:55:55;;;;;;;;;;;;;;;-0.64;100.00;99850.59;5018753;28;20014;-72
2021/01/30 11:58:21;;;;;;;;;;;;;;;-0.56;100.00;99858.56;5025273;28;19924;-73
2021/01/30 12:00:46;;;;;;;;;;;;;;;-0.54;100.00;99850.91;5023179;28;20430;-72
2021/01/30 12:03:25;;;;;;;;;;;;;;;-0.50;100.00;99857.84;5026387;28;19963;-73
2021/01/30 12:05:50;;;;;;;;;;;;;;;-0.68;100.00;99851.31;5016867;28;20008;-73
2021/01/30 12:08:16;;;;;;;;;;;;;;;-0.72;100.00;99852.06;5017687;28;20004;-72
2021/01/30 12:10:41;;;;;;;;;;;;;;;-0.69;100.00;99841.88;5017860;28;19925;-73
2021/01/30 12:13:06;;;;;;;;;;;;;;;-0.72;100.00;99841.78;5023827;28;19940;-72
2021/01/30 12:15:32;;;;;;;;;;;;;;;-0.69;100.00;99857.28;5022565;28;19917;-72
2021/01/30 12:17:57;;;;;;;;;;;;;;;-0.64;100.00;99854.84;5027764;28;19917;-73
2021/01/30 12:20:24;;;;;;;;;;;;;;;-0.60;100.00;99856.72;5031854;28;19999;-73
2021/01/30 12:22:49;;;;;;;;;;;;;;;-0.55;100.00;99851.72;5026447;28;19921;-72
2021/01/30 12:25:17;;;;;;;;;;;;;;;-0.60;100.00;99852.44;5028804;28;19995;-72
2021/01/30 12:27:47;;;;;;;;;;;;;;;-0.71;100.00;99847.78;5015270;28;19924;-72
2021/01/30 12:30:12;;;;;;;;;;;;;;;-0.83;100.00;99842.25;5015064;28;19921;-72
2021/01/30 12:32:38;;;;;;;;;;;;;;;-1.04;100.00;99852.66;5022852;28;19924;-73
2021/01/30 12:35:06;;;;;;;;;;;;;;;-1.06;100.00;99838.94;5029631;28;19971;-71
2021/01/30 12:37:31;;;;;;;;;;;;;;;-1.02;100.00;99835.63;5021443;28;20032;-72
2021/01/30 12:39:56;;;;;;;;;;;;;;;-1.01;100.00;99833.13;5023805;28;20059;-72
2021/01/30 12:42:22;;;;;;;;;;;;;;;-1.06;100.00;99831.22;5022577;28;19964;-72
2021/01/30 12:44:47;;;;;;;;;;;;;;;-1.15;100.00;99820.66;5018378;28;19924;-72
2021/01/30 12:47:21;;;;;;;;;;;;;;;-1.22;100.00;99822.13;5023273;28;19916;-71
2021/01/30 12:49:46;;;;;;;;;;;;;;;-1.17;100.00;99819.72;5018277;28;19942;-71
2021/01/30 12:52:12;;;;;;;;;;;;;;;-1.09;100.00;99813.16;5026946;28;20004;-72